sensor_id;sensor_type;location;lat;lon;timestamp;temperature;humidity
6486;DHT22;3276;48.490;9.222;2023-07-02T00:00:07;17.70;28.60
6486;DHT22;3276;48.490;9.222;2023-07-02T00:02:33;17.60;29.90
6486;DHT22;3276;48.490;9.222;2023-07-02T00:04:59;17.50;30.30
6486;DHT22;3276;48.490;9.222;2023-07-02T00:07:25;17.50;30.80
6486;DHT22;3276;48.490;9.222;2023-07-02T00:09:51;17.50;31.50
6486;DHT22;3276;48.490;9.222;2023-07-02T00:12:17;17.50;32.30
6486;DHT22;3276;48.490;9.222;2023-07-02T00:14:43;17.50;31.60
6486;DHT22;3276;48.490;9.222;2023-07-02T00:17:09;17.60;32.40
6486;DHT22;3276;48.490;9.222;2023-07-02T00:19:38;17.60;32.40
6486;DHT22;3276;48.490;9.222;2023-07-02T00:22:05;17.60;30.80
6486;DHT22;3276;48.490;9.222;2023-07-02T00:24:30;17.60;31.40
6486;DHT22;3276;48.490;9.222;2023-07-02T00:26:56;17.60;31.00
6486;DHT22;3276;48.490;9.222;2023-07-02T00:29:21;17.70;30.20
6486;DHT22;3276;48.490;9.222;2023-07-02T00:31:47;17.60;30.00
6486;DHT22;3276;48.490;9.222;2023-07-02T00:34:12;17.60;30.50
6486;DHT22;3276;48.490;9.222;2023-07-02T00:36:38;17.70;30.10
6486;DHT22;3276;48.490;9.222;2023-07-02T00:39:03;17.60;30.60
6486;DHT22;3276;48.490;9.222;2023-07-02T00:41:29;17.70;30.80
6486;DHT22;3276;48.490;9.222;2023-07-02T00:43:55;17.70;30.90
6486;DHT22;3276;48.490;9.222;2023-07-02T00:46:22;17.70;31.00
6486;DHT22;3276;48.490;9.222;2023-07-02T00:48:54;17.70;31.00
6486;DHT22;3276;48.490;9.222;2023-07-02T00:51:22;17.70;30.00
6486;DHT22;3276;48.490;9.222;2023-07-02T00:53:49;17.70;30.20
6486;DHT22;3276;48.490;9.222;2023-07-02T00:56:16;17.70;30.90
6486;DHT22;3276;48.490;9.222;2023-07-02T00:58:43;17.60;32.10
6486;DHT22;3276;48.490;9.222;2023-07-02T01:01:17;17.70;31.10
6486;DHT22;3276;48.490;9.222;2023-07-02T01:04:02;17.70;30.20
6486;DHT22;3276;48.490;9.222;2023-07-02T01:06:32;17.70;30.70
6486;DHT22;3276;48.490;9.222;2023-07-02T01:09:02;17.60;29.80
6486;DHT22;3276;48.490;9.222;2023-07-02T01:11:33;17.60;30.00
6486;DHT22;3276;48.490;9.222;2023-07-02T01:14:25;17.60;31.60
6486;DHT22;3276;48.490;9.222;2023-07-02T01:16:52;17.70;31.30
6486;DHT22;3276;48.490;9.222;2023-07-02T01:19:22;17.70;32.50
6486;DHT22;3276;48.490;9.222;2023-07-02T01:21:51;17.70;31.90
6486;DHT22;3276;48.490;9.222;2023-07-02T01:24:17;17.70;32.30
6486;DHT22;3276;48.490;9.222;2023-07-02T01:26:43;17.70;31.40
6486;DHT22;3276;48.490;9.222;2023-07-02T01:29:19;17.70;31.20
6486;DHT22;3276;48.490;9.222;2023-07-02T01:31:46;17.60;29.90
6486;DHT22;3276;48.490;9.222;2023-07-02T01:34:12;17.60;29.30
6486;DHT22;3276;48.490;9.222;2023-07-02T01:36:38;17.60;27.80
6486;DHT22;3276;48.490;9.222;2023-07-02T01:39:04;17.60;27.80
6486;DHT22;3276;48.490;9.222;2023-07-02T01:41:31;17.50;27.30
6486;DHT22;3276;48.490;9.222;2023-07-02T01:43:57;17.50;25.90
6486;DHT22;3276;48.490;9.222;2023-07-02T01:46:22;17.40;26.30
6486;DHT22;3276;48.490;9.222;2023-07-02T01:48:48;17.40;26.40
6486;DHT22;3276;48.490;9.222;2023-07-02T01:51:13;17.40;26.60
6486;DHT22;3276;48.490;9.222;2023-07-02T01:53:39;17.30;26.90
6486;DHT22;3276;48.490;9.222;2023-07-02T01:56:05;17.10;28.20
6486;DHT22;3276;48.490;9.222;2023-07-02T01:58:30;16.90;29.40
6486;DHT22;3276;48.490;9.222;2023-07-02T02:00:56;16.80;30.30
6486;DHT22;3276;48.490;9.222;2023-07-02T02:03:22;16.80;31.00
6486;DHT22;3276;48.490;9.222;2023-07-02T02:05:47;16.70;31.60
6486;DHT22;3276;48.490;9.222;2023-07-02T02:08:13;16.70;31.60
6486;DHT22;3276;48.490;9.222;2023-07-02T02:10:39;16.60;32.20
6486;DHT22;3276;48.490;9.222;2023-07-02T02:13:04;16.60;33.10
6486;DHT22;3276;48.490;9.222;2023-07-02T02:15:30;16.50;33.10
6486;DHT22;3276;48.490;9.222;2023-07-02T02:17:55;16.40;34.00
6486;DHT22;3276;48.490;9.222;2023-07-02T02:20:21;16.40;33.80
6486;DHT22;3276;48.490;9.222;2023-07-02T02:22:47;16.50;33.90
6486;DHT22;3276;48.490;9.222;2023-07-02T02:25:12;16.50;33.60
6486;DHT22;3276;48.490;9.222;2023-07-02T02:27:38;16.50;32.90
6486;DHT22;3276;48.490;9.222;2023-07-02T02:30:05;16.40;32.50
6486;DHT22;3276;48.490;9.222;2023-07-02T02:32:30;16.30;32.90
6486;DHT22;3276;48.490;9.222;2023-07-02T02:34:56;16.30;33.60
6486;DHT22;3276;48.490;9.222;2023-07-02T02:37:21;16.30;34.10
6486;DHT22;3276;48.490;9.222;2023-07-02T02:39:48;16.30;33.80
6486;DHT22;3276;48.490;9.222;2023-07-02T02:42:14;16.30;34.70
6486;DHT22;3276;48.490;9.222;2023-07-02T02:44:43;16.30;35.30
6486;DHT22;3276;48.490;9.222;2023-07-02T02:47:11;16.40;36.10
6486;DHT22;3276;48.490;9.222;2023-07-02T02:49:37;16.40;36.10
6486;DHT22;3276;48.490;9.222;2023-07-02T02:52:04;16.30;35.40
6486;DHT22;3276;48.490;9.222;2023-07-02T02:54:29;16.40;35.70
6486;DHT22;3276;48.490;9.222;2023-07-02T02:56:55;16.40;36.50
6486;DHT22;3276;48.490;9.222;2023-07-02T02:59:20;16.40;36.10
6486;DHT22;3276;48.490;9.222;2023-07-02T03:01:46;16.30;36.50
6486;DHT22;3276;48.490;9.222;2023-07-02T03:04:12;16.40;35.90
6486;DHT22;3276;48.490;9.222;2023-07-02T03:06:38;16.50;35.40
6486;DHT22;3276;48.490;9.222;2023-07-02T03:09:04;16.50;34.00
6486;DHT22;3276;48.490;9.222;2023-07-02T03:11:30;16.40;34.80
6486;DHT22;3276;48.490;9.222;2023-07-02T03:13:55;16.40;36.20
6486;DHT22;3276;48.490;9.222;2023-07-02T03:16:21;16.40;35.70
6486;DHT22;3276;48.490;9.222;2023-07-02T03:18:46;16.50;34.60
6486;DHT22;3276;48.490;9.222;2023-07-02T03:21:12;16.40;34.00
6486;DHT22;3276;48.490;9.222;2023-07-02T03:23:38;16.30;35.10
6486;DHT22;3276;48.490;9.222;2023-07-02T03:26:03;16.20;36.80
6486;DHT22;3276;48.490;9.222;2023-07-02T03:28:29;16.20;36.50
6486;DHT22;3276;48.490;9.222;2023-07-02T03:30:55;16.20;36.40
6486;DHT22;3276;48.490;9.222;2023-07-02T03:33:20;16.20;36.60
6486;DHT22;3276;48.490;9.222;2023-07-02T03:35:46;16.20;37.10
6486;DHT22;3276;48.490;9.222;2023-07-02T03:38:11;16.20;37.80
6486;DHT22;3276;48.490;9.222;2023-07-02T03:40:37;16.20;37.40
6486;DHT22;3276;48.490;9.222;2023-07-02T03:43:02;16.20;37.50
6486;DHT22;3276;48.490;9.222;2023-07-02T03:45:28;16.30;36.50
6486;DHT22;3276;48.490;9.222;2023-07-02T03:47:54;16.30;39.90
6486;DHT22;3276;48.490;9.222;2023-07-02T03:50:19;16.20;41.00
6486;DHT22;3276;48.490;9.222;2023-07-02T03:52:45;16.10;42.70
6486;DHT22;3276;48.490;9.222;2023-07-02T03:55:11;16.00;44.90
6486;DHT22;3276;48.490;9.222;2023-07-02T03:57:37;15.90;45.60
6486;DHT22;3276;48.490;9.222;2023-07-02T04:00:02;15.80;46.20
6486;DHT22;3276;48.490;9.222;2023-07-02T04:02:30;15.60;46.60
6486;DHT22;3276;48.490;9.222;2023-07-02T04:04:56;15.50;48.90
6486;DHT22;3276;48.490;9.222;2023-07-02T04:07:21;15.50;49.40
6486;DHT22;3276;48.490;9.222;2023-07-02T04:09:47;15.40;48.80
6486;DHT22;3276;48.490;9.222;2023-07-02T04:12:12;15.40;50.00
6486;DHT22;3276;48.490;9.222;2023-07-02T04:14:38;15.40;50.50
6486;DHT22;3276;48.490;9.222;2023-07-02T04:17:04;15.30;51.10
6486;DHT22;3276;48.490;9.222;2023-07-02T04:19:29;15.30;51.00
6486;DHT22;3276;48.490;9.222;2023-07-02T04:21:55;15.30;52.30
6486;DHT22;3276;48.490;9.222;2023-07-02T04:24:20;15.20;52.60
6486;DHT22;3276;48.490;9.222;2023-07-02T04:26:49;15.20;54.20
6486;DHT22;3276;48.490;9.222;2023-07-02T04:29:14;15.20;53.60
6486;DHT22;3276;48.490;9.222;2023-07-02T04:31:40;15.30;53.80
6486;DHT22;3276;48.490;9.222;2023-07-02T04:34:05;15.30;52.70
6486;DHT22;3276;48.490;9.222;2023-07-02T04:36:31;15.20;54.20
6486;DHT22;3276;48.490;9.222;2023-07-02T04:38:57;15.30;54.10
6486;DHT22;3276;48.490;9.222;2023-07-02T04:41:22;15.20;54.00
6486;DHT22;3276;48.490;9.222;2023-07-02T04:43:48;15.30;53.70
6486;DHT22;3276;48.490;9.222;2023-07-02T04:46:14;15.20;52.70
6486;DHT22;3276;48.490;9.222;2023-07-02T04:48:39;15.20;52.70
6486;DHT22;3276;48.490;9.222;2023-07-02T04:51:05;15.20;53.20
6486;DHT22;3276;48.490;9.222;2023-07-02T04:53:30;15.20;52.50
6486;DHT22;3276;48.490;9.222;2023-07-02T04:55:56;15.10;50.90
6486;DHT22;3276;48.490;9.222;2023-07-02T04:58:24;15.10;49.90
6486;DHT22;3276;48.490;9.222;2023-07-02T05:00:53;15.20;51.90
6486;DHT22;3276;48.490;9.222;2023-07-02T05:03:19;15.20;51.70
6486;DHT22;3276;48.490;9.222;2023-07-02T05:05:44;15.30;52.10
6486;DHT22;3276;48.490;9.222;2023-07-02T05:08:10;15.40;50.60
6486;DHT22;3276;48.490;9.222;2023-07-02T05:10:35;15.50;51.30
6486;DHT22;3276;48.490;9.222;2023-07-02T05:13:01;15.70;51.50
6486;DHT22;3276;48.490;9.222;2023-07-02T05:15:27;15.90;48.00
6486;DHT22;3276;48.490;9.222;2023-07-02T05:17:52;16.10;44.40
6486;DHT22;3276;48.490;9.222;2023-07-02T05:20:18;16.30;42.70
6486;DHT22;3276;48.490;9.222;2023-07-02T05:22:43;16.20;38.40
6486;DHT22;3276;48.490;9.222;2023-07-02T05:25:09;16.30;38.20
6486;DHT22;3276;48.490;9.222;2023-07-02T05:27:34;16.40;37.00
6486;DHT22;3276;48.490;9.222;2023-07-02T05:30:00;16.50;38.40
6486;DHT22;3276;48.490;9.222;2023-07-02T05:32:26;16.50;35.90
6486;DHT22;3276;48.490;9.222;2023-07-02T05:34:51;16.60;34.10
6486;DHT22;3276;48.490;9.222;2023-07-02T05:37:18;16.70;35.00
6486;DHT22;3276;48.490;9.222;2023-07-02T05:39:43;16.80;32.80
6486;DHT22;3276;48.490;9.222;2023-07-02T05:42:09;17.00;30.70
6486;DHT22;3276;48.490;9.222;2023-07-02T05:44:34;17.20;29.60
6486;DHT22;3276;48.490;9.222;2023-07-02T05:47:00;17.30;28.10
6486;DHT22;3276;48.490;9.222;2023-07-02T05:49:25;17.20;27.50
6486;DHT22;3276;48.490;9.222;2023-07-02T05:51:52;17.40;27.70
6486;DHT22;3276;48.490;9.222;2023-07-02T05:54:17;17.60;26.90
6486;DHT22;3276;48.490;9.222;2023-07-02T05:56:43;17.70;26.00
6486;DHT22;3276;48.490;9.222;2023-07-02T05:59:08;18.30;26.40
6486;DHT22;3276;48.490;9.222;2023-07-02T06:01:34;18.80;22.10
6486;DHT22;3276;48.490;9.222;2023-07-02T06:04:00;19.30;19.80
6486;DHT22;3276;48.490;9.222;2023-07-02T06:06:25;19.80;16.40
6486;DHT22;3276;48.490;9.222;2023-07-02T06:08:54;19.60;17.00
6486;DHT22;3276;48.490;9.222;2023-07-02T06:11:20;19.60;16.30
6486;DHT22;3276;48.490;9.222;2023-07-02T06:13:45;20.80;14.20
6486;DHT22;3276;48.490;9.222;2023-07-02T06:16:11;22.10;10.00
6486;DHT22;3276;48.490;9.222;2023-07-02T06:18:36;23.30;3.10
6486;DHT22;3276;48.490;9.222;2023-07-02T06:21:02;25.10;1.70
6486;DHT22;3276;48.490;9.222;2023-07-02T06:23:29;26.90;1.00
6486;DHT22;3276;48.490;9.222;2023-07-02T06:25:54;27.70;1.00
6486;DHT22;3276;48.490;9.222;2023-07-02T06:28:25;27.10;1.00
6486;DHT22;3276;48.490;9.222;2023-07-02T06:30:51;26.90;1.00
6486;DHT22;3276;48.490;9.222;2023-07-02T06:33:17;26.80;1.00
6486;DHT22;3276;48.490;9.222;2023-07-02T06:35:42;28.30;1.00
6486;DHT22;3276;48.490;9.222;2023-07-02T06:38:08;29.10;1.00
6486;DHT22;3276;48.490;9.222;2023-07-02T06:40:33;29.60;1.00
6486;DHT22;3276;48.490;9.222;2023-07-02T06:45:25;32.30;1.00
6486;DHT22;3276;48.490;9.222;2023-07-02T06:47:51;31.00;1.00
6486;DHT22;3276;48.490;9.222;2023-07-02T06:50:16;30.50;1.00
6486;DHT22;3276;48.490;9.222;2023-07-02T06:52:42;32.00;1.00
6486;DHT22;3276;48.490;9.222;2023-07-02T06:55:08;31.40;1.00
6486;DHT22;3276;48.490;9.222;2023-07-02T06:57:33;29.20;1.00
6486;DHT22;3276;48.490;9.222;2023-07-02T06:59:59;27.30;1.00
6486;DHT22;3276;48.490;9.222;2023-07-02T07:02:26;26.70;1.00
6486;DHT22;3276;48.490;9.222;2023-07-02T07:04:51;25.50;1.00
6486;DHT22;3276;48.490;9.222;2023-07-02T07:07:17;26.30;1.00
6486;DHT22;3276;48.490;9.222;2023-07-02T07:09:42;26.50;1.00
6486;DHT22;3276;48.490;9.222;2023-07-02T07:12:08;27.70;1.00
6486;DHT22;3276;48.490;9.222;2023-07-02T07:14:33;26.40;1.00
6486;DHT22;3276;48.490;9.222;2023-07-02T07:16:59;25.60;1.00
6486;DHT22;3276;48.490;9.222;2023-07-02T07:19:25;27.10;1.00
6486;DHT22;3276;48.490;9.222;2023-07-02T07:21:50;28.50;1.00
6486;DHT22;3276;48.490;9.222;2023-07-02T07:26:42;31.40;1.00
6486;DHT22;3276;48.490;9.222;2023-07-02T07:29:07;32.30;1.00
6486;DHT22;3276;48.490;9.222;2023-07-02T07:31:34;30.60;1.00
6486;DHT22;3276;48.490;9.222;2023-07-02T07:33:59;29.70;1.00
6486;DHT22;3276;48.490;9.222;2023-07-02T07:36:25;30.00;1.00
6486;DHT22;3276;48.490;9.222;2023-07-02T07:38:53;27.10;1.00
6486;DHT22;3276;48.490;9.222;2023-07-02T07:41:22;25.10;1.00
6486;DHT22;3276;48.490;9.222;2023-07-02T07:43:48;25.40;1.00
6486;DHT22;3276;48.490;9.222;2023-07-02T07:46:13;25.20;1.00
6486;DHT22;3276;48.490;9.222;2023-07-02T07:48:39;25.00;1.00
6486;DHT22;3276;48.490;9.222;2023-07-02T07:51:05;24.40;1.00
6486;DHT22;3276;48.490;9.222;2023-07-02T07:53:30;25.70;1.00
6486;DHT22;3276;48.490;9.222;2023-07-02T07:55:56;24.60;1.00
6486;DHT22;3276;48.490;9.222;2023-07-02T07:58:23;24.20;1.00
6486;DHT22;3276;48.490;9.222;2023-07-02T08:00:49;24.20;1.00
6486;DHT22;3276;48.490;9.222;2023-07-02T08:03:14;23.70;1.00
6486;DHT22;3276;48.490;9.222;2023-07-02T08:05:40;24.30;1.00
6486;DHT22;3276;48.490;9.222;2023-07-02T08:08:05;26.60;1.00
6486;DHT22;3276;48.490;9.222;2023-07-02T08:10:31;29.00;1.00
6486;DHT22;3276;48.490;9.222;2023-07-02T08:12:57;29.50;1.00
6486;DHT22;3276;48.490;9.222;2023-07-02T08:15:22;31.40;1.00
6486;DHT22;3276;48.490;9.222;2023-07-02T08:17:48;33.10;1.00
6486;DHT22;3276;48.490;9.222;2023-07-02T08:20:14;33.90;1.00
6486;DHT22;3276;48.490;9.222;2023-07-02T08:22:40;34.90;1.00
6486;DHT22;3276;48.490;9.222;2023-07-02T08:25:07;34.60;1.00
6486;DHT22;3276;48.490;9.222;2023-07-02T08:27:33;33.10;1.00
6486;DHT22;3276;48.490;9.222;2023-07-02T08:29:58;32.10;1.00
6486;DHT22;3276;48.490;9.222;2023-07-02T08:32:24;31.70;1.00
6486;DHT22;3276;48.490;9.222;2023-07-02T08:34:50;32.30;1.00
6486;DHT22;3276;48.490;9.222;2023-07-02T08:37:20;33.50;1.00
6486;DHT22;3276;48.490;9.222;2023-07-02T08:39:46;33.20;1.00
6486;DHT22;3276;48.490;9.222;2023-07-02T08:42:11;31.90;1.00
6486;DHT22;3276;48.490;9.222;2023-07-02T08:44:37;31.50;1.00
6486;DHT22;3276;48.490;9.222;2023-07-02T08:47:03;31.60;1.00
6486;DHT22;3276;48.490;9.222;2023-07-02T08:49:30;31.60;1.00
6486;DHT22;3276;48.490;9.222;2023-07-02T08:51:56;32.70;1.00
6486;DHT22;3276;48.490;9.222;2023-07-02T08:54:22;33.20;1.00
6486;DHT22;3276;48.490;9.222;2023-07-02T08:56:47;33.60;1.00
6486;DHT22;3276;48.490;9.222;2023-07-02T08:59:13;33.90;1.00
6486;DHT22;3276;48.490;9.222;2023-07-02T09:01:52;35.20;1.00
6486;DHT22;3276;48.490;9.222;2023-07-02T09:04:19;32.10;1.00
6486;DHT22;3276;48.490;9.222;2023-07-02T09:06:46;31.90;1.00
6486;DHT22;3276;48.490;9.222;2023-07-02T09:09:12;31.90;1.00
6486;DHT22;3276;48.490;9.222;2023-07-02T09:11:48;31.30;1.00
6486;DHT22;3276;48.490;9.222;2023-07-02T09:17:04;28.90;1.00
6486;DHT22;3276;48.490;9.222;2023-07-02T09:19:34;29.30;1.00
6486;DHT22;3276;48.490;9.222;2023-07-02T09:22:00;28.20;1.00
6486;DHT22;3276;48.490;9.222;2023-07-02T09:24:31;27.10;1.00
6486;DHT22;3276;48.490;9.222;2023-07-02T09:26:59;25.50;1.00
6486;DHT22;3276;48.490;9.222;2023-07-02T09:29:29;24.90;1.00
6486;DHT22;3276;48.490;9.222;2023-07-02T09:32:01;24.70;1.00
6486;DHT22;3276;48.490;9.222;2023-07-02T09:34:30;24.70;1.00
6486;DHT22;3276;48.490;9.222;2023-07-02T09:36:57;24.90;1.00
6486;DHT22;3276;48.490;9.222;2023-07-02T09:39:29;24.80;1.00
6486;DHT22;3276;48.490;9.222;2023-07-02T09:41:56;24.70;1.00
6486;DHT22;3276;48.490;9.222;2023-07-02T09:44:26;24.80;1.00
6486;DHT22;3276;48.490;9.222;2023-07-02T09:47:05;25.20;1.00
6486;DHT22;3276;48.490;9.222;2023-07-02T09:49:38;25.30;1.00
6486;DHT22;3276;48.490;9.222;2023-07-02T09:52:09;24.80;1.00
6486;DHT22;3276;48.490;9.222;2023-07-02T09:54:35;24.70;1.00
6486;DHT22;3276;48.490;9.222;2023-07-02T09:57:02;24.20;1.00
6486;DHT22;3276;48.490;9.222;2023-07-02T09:59:30;24.20;1.00
6486;DHT22;3276;48.490;9.222;2023-07-02T10:01:56;23.70;1.00
6486;DHT22;3276;48.490;9.222;2023-07-02T10:04:22;23.30;1.00
6486;DHT22;3276;48.490;9.222;2023-07-02T10:06:56;23.40;1.00
6486;DHT22;3276;48.490;9.222;2023-07-02T10:09:38;23.50;1.00
6486;DHT22;3276;48.490;9.222;2023-07-02T10:12:25;23.70;1.00
6486;DHT22;3276;48.490;9.222;2023-07-02T10:14:53;23.70;1.00
6486;DHT22;3276;48.490;9.222;2023-07-02T10:19:51;24.00;1.00
6486;DHT22;3276;48.490;9.222;2023-07-02T10:22:17;24.10;1.00
6486;DHT22;3276;48.490;9.222;2023-07-02T10:24:59;24.40;1.00
6486;DHT22;3276;48.490;9.222;2023-07-02T10:27:39;24.20;1.00
6486;DHT22;3276;48.490;9.222;2023-07-02T10:30:06;24.20;1.00
6486;DHT22;3276;48.490;9.222;2023-07-02T10:32:36;24.30;1.00
6486;DHT22;3276;48.490;9.222;2023-07-02T10:35:16;24.60;1.00
6486;DHT22;3276;48.490;9.222;2023-07-02T10:37:43;24.80;1.00
6486;DHT22;3276;48.490;9.222;2023-07-02T10:40:09;25.10;1.00
6486;DHT22;3276;48.490;9.222;2023-07-02T10:42:48;24.90;1.00
6486;DHT22;3276;48.490;9.222;2023-07-02T10:45:14;24.20;1.00
6486;DHT22;3276;48.490;9.222;2023-07-02T10:47:40;23.90;1.00
6486;DHT22;3276;48.490;9.222;2023-07-02T10:50:20;23.70;1.00
6486;DHT22;3276;48.490;9.222;2023-07-02T10:52:46;23.80;1.00
6486;DHT22;3276;48.490;9.222;2023-07-02T10:55:18;24.30;1.00
6486;DHT22;3276;48.490;9.222;2023-07-02T10:57:44;24.40;1.00
6486;DHT22;3276;48.490;9.222;2023-07-02T11:00:10;24.70;1.00
6486;DHT22;3276;48.490;9.222;2023-07-02T11:02:39;24.70;1.00
6486;DHT22;3276;48.490;9.222;2023-07-02T11:05:06;24.80;1.00
6486;DHT22;3276;48.490;9.222;2023-07-02T11:07:32;24.90;1.00
6486;DHT22;3276;48.490;9.222;2023-07-02T11:09:58;25.00;1.00
6486;DHT22;3276;48.490;9.222;2023-07-02T11:12:31;25.20;1.00
6486;DHT22;3276;48.490;9.222;2023-07-02T11:15:16;25.30;1.00
6486;DHT22;3276;48.490;9.222;2023-07-02T11:17:45;25.10;1.00
6486;DHT22;3276;48.490;9.222;2023-07-02T11:20:12;25.30;1.00
6486;DHT22;3276;48.490;9.222;2023-07-02T11:22:39;25.30;1.00
6486;DHT22;3276;48.490;9.222;2023-07-02T11:25:17;25.50;1.00
6486;DHT22;3276;48.490;9.222;2023-07-02T11:27:43;25.70;1.00
6486;DHT22;3276;48.490;9.222;2023-07-02T11:30:10;25.50;1.00
6486;DHT22;3276;48.490;9.222;2023-07-02T11:32:56;25.30;1.00
6486;DHT22;3276;48.490;9.222;2023-07-02T11:35:22;24.90;1.00
6486;DHT22;3276;48.490;9.222;2023-07-02T11:37:58;25.00;1.00
6486;DHT22;3276;48.490;9.222;2023-07-02T11:40:24;25.30;1.00
6486;DHT22;3276;48.490;9.222;2023-07-02T11:42:49;25.00;1.00
6486;DHT22;3276;48.490;9.222;2023-07-02T11:45:15;25.00;1.00
6486;DHT22;3276;48.490;9.222;2023-07-02T11:47:40;24.90;1.00
6486;DHT22;3276;48.490;9.222;2023-07-02T11:50:06;24.60;1.00
6486;DHT22;3276;48.490;9.222;2023-07-02T11:52:32;24.80;1.00
6486;DHT22;3276;48.490;9.222;2023-07-02T11:54:58;24.80;1.00
6486;DHT22;3276;48.490;9.222;2023-07-02T11:57:23;24.70;1.00
6486;DHT22;3276;48.490;9.222;2023-07-02T11:59:49;24.70;1.00
6486;DHT22;3276;48.490;9.222;2023-07-02T12:02:15;24.60;1.00
6486;DHT22;3276;48.490;9.222;2023-07-02T12:04:42;24.50;1.00
6486;DHT22;3276;48.490;9.222;2023-07-02T12:07:07;24.70;1.00
6486;DHT22;3276;48.490;9.222;2023-07-02T12:09:33;24.90;1.00
6486;DHT22;3276;48.490;9.222;2023-07-02T12:11:58;24.80;1.00
6486;DHT22;3276;48.490;9.222;2023-07-02T12:14:24;25.00;1.00
6486;DHT22;3276;48.490;9.222;2023-07-02T12:16:49;25.30;1.00
6486;DHT22;3276;48.490;9.222;2023-07-02T12:19:15;25.70;1.00
6486;DHT22;3276;48.490;9.222;2023-07-02T12:21:40;25.40;1.00
6486;DHT22;3276;48.490;9.222;2023-07-02T12:24:06;25.60;1.00
6486;DHT22;3276;48.490;9.222;2023-07-02T12:26:35;25.90;1.00
6486;DHT22;3276;48.490;9.222;2023-07-02T12:29:01;26.10;1.00
6486;DHT22;3276;48.490;9.222;2023-07-02T12:31:26;26.00;1.00
6486;DHT22;3276;48.490;9.222;2023-07-02T12:33:52;25.70;1.00
6486;DHT22;3276;48.490;9.222;2023-07-02T12:36:17;25.50;1.00
6486;DHT22;3276;48.490;9.222;2023-07-02T12:38:43;25.60;1.00
6486;DHT22;3276;48.490;9.222;2023-07-02T12:41:08;25.50;1.00
6486;DHT22;3276;48.490;9.222;2023-07-02T12:43:34;25.30;1.00
6486;DHT22;3276;48.490;9.222;2023-07-02T12:45:59;25.10;1.00
6486;DHT22;3276;48.490;9.222;2023-07-02T12:48:25;25.40;1.00
6486;DHT22;3276;48.490;9.222;2023-07-02T12:50:58;25.70;1.00
6486;DHT22;3276;48.490;9.222;2023-07-02T12:53:24;25.70;1.00
6486;DHT22;3276;48.490;9.222;2023-07-02T12:55:50;25.70;1.00
6486;DHT22;3276;48.490;9.222;2023-07-02T12:58:16;25.70;1.00
6486;DHT22;3276;48.490;9.222;2023-07-02T13:00:41;25.80;1.00
6486;DHT22;3276;48.490;9.222;2023-07-02T13:03:10;25.70;1.00
6486;DHT22;3276;48.490;9.222;2023-07-02T13:05:36;25.80;1.00
6486;DHT22;3276;48.490;9.222;2023-07-02T13:08:02;25.90;1.00
6486;DHT22;3276;48.490;9.222;2023-07-02T13:10:29;25.70;1.00
6486;DHT22;3276;48.490;9.222;2023-07-02T13:12:55;25.80;1.00
6486;DHT22;3276;48.490;9.222;2023-07-02T13:15:21;26.20;1.00
6486;DHT22;3276;48.490;9.222;2023-07-02T13:17:47;26.20;1.00
6486;DHT22;3276;48.490;9.222;2023-07-02T13:20:13;25.80;1.00
6486;DHT22;3276;48.490;9.222;2023-07-02T13:22:38;25.90;1.00
6486;DHT22;3276;48.490;9.222;2023-07-02T13:25:04;25.50;1.00
6486;DHT22;3276;48.490;9.222;2023-07-02T13:27:30;25.70;1.00
6486;DHT22;3276;48.490;9.222;2023-07-02T13:29:56;25.70;1.00
6486;DHT22;3276;48.490;9.222;2023-07-02T13:32:22;25.90;1.00
6486;DHT22;3276;48.490;9.222;2023-07-02T13:34:47;25.90;1.00
6486;DHT22;3276;48.490;9.222;2023-07-02T13:37:13;25.70;1.00
6486;DHT22;3276;48.490;9.222;2023-07-02T13:39:39;25.60;1.00
6486;DHT22;3276;48.490;9.222;2023-07-02T13:42:05;25.40;1.00
6486;DHT22;3276;48.490;9.222;2023-07-02T13:44:31;25.10;1.00
6486;DHT22;3276;48.490;9.222;2023-07-02T13:46:57;25.30;1.00
6486;DHT22;3276;48.490;9.222;2023-07-02T13:49:22;25.20;1.00
6486;DHT22;3276;48.490;9.222;2023-07-02T13:51:48;25.20;1.00
6486;DHT22;3276;48.490;9.222;2023-07-02T13:54:15;25.40;1.00
6486;DHT22;3276;48.490;9.222;2023-07-02T13:56:41;25.60;1.00
6486;DHT22;3276;48.490;9.222;2023-07-02T13:59:07;25.60;1.00
6486;DHT22;3276;48.490;9.222;2023-07-02T14:01:33;25.60;1.00
6486;DHT22;3276;48.490;9.222;2023-07-02T14:03:59;25.30;1.00
6486;DHT22;3276;48.490;9.222;2023-07-02T14:06:25;25.20;1.00
6486;DHT22;3276;48.490;9.222;2023-07-02T14:08:51;25.20;1.00
6486;DHT22;3276;48.490;9.222;2023-07-02T14:11:16;25.10;1.00
6486;DHT22;3276;48.490;9.222;2023-07-02T14:13:42;25.30;1.00
6486;DHT22;3276;48.490;9.222;2023-07-02T14:16:07;25.60;1.00
6486;DHT22;3276;48.490;9.222;2023-07-02T14:18:33;25.70;1.00
6486;DHT22;3276;48.490;9.222;2023-07-02T14:20:59;25.80;1.00
6486;DHT22;3276;48.490;9.222;2023-07-02T14:23:24;25.60;1.00
6486;DHT22;3276;48.490;9.222;2023-07-02T14:25:50;25.60;1.00
6486;DHT22;3276;48.490;9.222;2023-07-02T14:28:15;25.70;1.00
6486;DHT22;3276;48.490;9.222;2023-07-02T14:30:41;26.10;1.00
6486;DHT22;3276;48.490;9.222;2023-07-02T14:33:08;26.10;1.00
6486;DHT22;3276;48.490;9.222;2023-07-02T14:35:33;26.10;1.00
6486;DHT22;3276;48.490;9.222;2023-07-02T14:38:00;26.40;1.00
6486;DHT22;3276;48.490;9.222;2023-07-02T14:40:26;26.20;1.00
6486;DHT22;3276;48.490;9.222;2023-07-02T14:42:51;26.40;1.00
6486;DHT22;3276;48.490;9.222;2023-07-02T14:45:17;26.30;1.00
6486;DHT22;3276;48.490;9.222;2023-07-02T14:47:42;26.60;1.00
6486;DHT22;3276;48.490;9.222;2023-07-02T14:50:08;26.60;1.00
6486;DHT22;3276;48.490;9.222;2023-07-02T14:52:34;26.30;1.00
6486;DHT22;3276;48.490;9.222;2023-07-02T14:54:59;25.90;1.00
6486;DHT22;3276;48.490;9.222;2023-07-02T14:57:26;25.70;1.00
6486;DHT22;3276;48.490;9.222;2023-07-02T14:59:52;26.00;1.00
6486;DHT22;3276;48.490;9.222;2023-07-02T15:02:18;26.50;1.00
6486;DHT22;3276;48.490;9.222;2023-07-02T15:04:44;26.60;1.00
6486;DHT22;3276;48.490;9.222;2023-07-02T15:07:10;26.30;1.00
6486;DHT22;3276;48.490;9.222;2023-07-02T15:09:36;25.90;1.00
6486;DHT22;3276;48.490;9.222;2023-07-02T15:12:02;26.10;1.00
6486;DHT22;3276;48.490;9.222;2023-07-02T15:14:27;26.00;1.00
6486;DHT22;3276;48.490;9.222;2023-07-02T15:16:53;25.90;1.00
6486;DHT22;3276;48.490;9.222;2023-07-02T15:19:18;25.60;1.00
6486;DHT22;3276;48.490;9.222;2023-07-02T15:21:44;25.40;1.00
6486;DHT22;3276;48.490;9.222;2023-07-02T15:24:10;25.40;1.00
6486;DHT22;3276;48.490;9.222;2023-07-02T15:26:38;25.40;1.00
6486;DHT22;3276;48.490;9.222;2023-07-02T15:29:05;25.00;1.00
6486;DHT22;3276;48.490;9.222;2023-07-02T15:31:31;25.20;1.00
6486;DHT22;3276;48.490;9.222;2023-07-02T15:33:56;25.40;1.00
6486;DHT22;3276;48.490;9.222;2023-07-02T15:36:22;25.50;1.00
6486;DHT22;3276;48.490;9.222;2023-07-02T15:38:48;25.30;1.00
6486;DHT22;3276;48.490;9.222;2023-07-02T15:41:17;25.30;1.00
6486;DHT22;3276;48.490;9.222;2023-07-02T15:43:44;25.20;1.00
6486;DHT22;3276;48.490;9.222;2023-07-02T15:46:12;25.10;1.00
6486;DHT22;3276;48.490;9.222;2023-07-02T15:48:39;25.10;1.00
6486;DHT22;3276;48.490;9.222;2023-07-02T15:51:06;25.10;1.00
6486;DHT22;3276;48.490;9.222;2023-07-02T15:53:33;25.00;1.00
6486;DHT22;3276;48.490;9.222;2023-07-02T15:55:59;24.80;1.00
6486;DHT22;3276;48.490;9.222;2023-07-02T15:58:27;24.60;1.00
6486;DHT22;3276;48.490;9.222;2023-07-02T16:00:53;24.60;1.00
6486;DHT22;3276;48.490;9.222;2023-07-02T16:03:19;24.60;1.00
6486;DHT22;3276;48.490;9.222;2023-07-02T16:05:45;24.90;1.00
6486;DHT22;3276;48.490;9.222;2023-07-02T16:08:11;25.00;1.00
6486;DHT22;3276;48.490;9.222;2023-07-02T16:10:44;24.90;1.00
6486;DHT22;3276;48.490;9.222;2023-07-02T16:13:11;24.90;1.00
6486;DHT22;3276;48.490;9.222;2023-07-02T16:15:40;24.90;1.00
6486;DHT22;3276;48.490;9.222;2023-07-02T16:18:07;24.90;1.00